Time;durP1;ratioP1;P1;durP2;ratioP2;P2;SDS_P1;SDS_P2;PMS_P1;PMS_P2;Temp;Humidity;BMP_temperature;BMP_pressure;BME280_temperature;BME280_humidity;BME280_pressure;Samples;Min_cycle;Max_cycle;Signal;HPM_P1;HPM_P2
2023/09/11 00:00:28;;;;;;;25.58;22.67;;;23.80;99.90;;;;;;5060713;28;20013;-78
2023/09/11 00:02:53;;;;;;;24.23;21.77;;;23.80;99.90;;;;;;5060579;28;20020;-78
2023/09/11 00:05:19;;;;;;;24.40;22.13;;;23.80;99.90;;;;;;5058842;28;20021;-78
2023/09/11 00:07:45;;;;;;;24.08;21.70;;;23.70;99.90;;;;;;5065244;28;20381;-78
2023/09/11 00:10:11;;;;;;;25.40;23.00;;;23.70;99.90;;;;;;5060086;28;20087;-78
2023/09/11 00:12:37;;;;;;;27.63;25.20;;;23.70;99.90;;;;;;5065738;28;20016;-78
2023/09/11 00:15:02;;;;;;;25.60;23.23;;;23.70;99.90;;;;;;5059674;28;20025;-78
2023/09/11 00:17:28;;;;;;;24.15;21.73;;;23.70;99.90;;;;;;5052267;28;20045;-79
2023/09/11 00:19:54;;;;;;;25.95;23.60;;;23.70;99.90;;;;;;5052244;28;20013;-78
2023/09/11 00:22:20;;;;;;;26.67;24.35;;;23.70;99.90;;;;;;5051201;28;20066;-78
2023/09/11 00:24:45;;;;;;;26.35;23.88;;;23.60;99.90;;;;;;5051683;28;20508;-78
2023/09/11 00:27:11;;;;;;;26.40;23.95;;;23.60;99.90;;;;;;5062892;28;20525;-78
2023/09/11 00:29:36;;;;;;;24.73;22.55;;;23.60;99.90;;;;;;5071268;28;20035;-78
2023/09/11 00:32:02;;;;;;;23.45;21.35;;;23.60;99.90;;;;;;5054174;28;20112;-78
2023/09/11 00:34:29;;;;;;;25.75;23.35;;;23.60;99.90;;;;;;5050382;28;20044;-78
2023/09/11 00:36:55;;;;;;;26.83;24.17;;;23.50;99.90;;;;;;5051078;28;20017;-77
2023/09/11 00:39:21;;;;;;;27.52;25.13;;;23.50;99.90;;;;;;5063052;28;20020;-78
2023/09/11 00:41:47;;;;;;;26.25;23.95;;;23.50;99.90;;;;;;5053260;28;20033;-78
2023/09/11 00:44:12;;;;;;;27.73;24.73;;;23.50;99.90;;;;;;5054993;28;20469;-78
2023/09/11 00:46:39;;;;;;;25.70;23.20;;;23.40;99.90;;;;;;5062991;28;20020;-78
2023/09/11 00:49:06;;;;;;;26.40;23.98;;;23.40;99.90;;;;;;5051778;28;20085;-78
2023/09/11 00:51:32;;;;;;;26.70;24.30;;;23.40;99.90;;;;;;5051117;28;20056;-78
2023/09/11 00:53:58;;;;;;;28.98;26.00;;;23.40;99.90;;;;;;5050831;28;20478;-78
2023/09/11 00:56:24;;;;;;;26.13;23.48;;;23.40;99.90;;;;;;5051444;28;20079;-78
2023/09/11 00:58:50;;;;;;;26.17;23.77;;;23.30;99.90;;;;;;5064071;28;20061;-78
2023/09/11 01:01:17;;;;;;;28.60;26.02;;;23.30;99.90;;;;;;5054770;28;20432;-78
2023/09/11 01:03:44;;;;;;;26.85;24.35;;;23.40;99.90;;;;;;5062035;28;20029;-78
2023/09/11 01:06:10;;;;;;;26.52;23.70;;;23.30;99.90;;;;;;5065073;28;20489;-79
2023/09/11 01:08:36;;;;;;;29.30;26.40;;;23.30;99.90;;;;;;5067269;28;20032;-78
2023/09/11 01:11:01;;;;;;;28.55;25.95;;;23.30;99.90;;;;;;5050210;28;20044;-79
2023/09/11 01:13:27;;;;;;;27.23;24.52;;;23.30;99.90;;;;;;5050811;28;20474;-78
2023/09/11 01:16:10;;;;;;;26.95;24.52;;;23.30;99.90;;;;;;5050765;28;20171;-77
2023/09/11 01:18:53;;;;;;;25.50;23.08;;;23.30;99.90;;;;;;5040302;28;20065;-78
2023/09/11 01:21:36;;;;;;;25.20;21.50;;;23.30;99.90;;;;;;5054278;28;20037;-78
2023/09/11 01:24:50;;;;;;;24.52;21.85;;;23.30;99.90;;;;;;5065619;28;20122;-78
2023/09/11 01:27:49;;;;;;;25.48;23.15;;;23.20;99.90;;;;;;5058511;28;20545;-78
2023/09/11 01:30:16;;;;;;;25.70;23.40;;;23.20;99.90;;;;;;5045475;28;20043;-78
2023/09/11 01:32:42;;;;;;;27.98;25.23;;;23.20;99.90;;;;;;5062277;28;20053;-78
2023/09/11 01:35:08;;;;;;;26.83;24.13;;;23.20;99.90;;;;;;5050266;28;20111;-78
2023/09/11 01:37:33;;;;;;;24.13;22.08;;;23.10;99.90;;;;;;5054567;28;20095;-78
2023/09/11 01:39:59;;;;;;;27.27;24.05;;;23.20;99.90;;;;;;5059373;28;20032;-78
2023/09/11 01:42:38;;;;;;;24.90;22.70;;;23.20;99.90;;;;;;5064364;28;20378;-78
2023/09/11 01:45:06;;;;;;;26.60;23.73;;;23.10;99.90;;;;;;5061530;28;20040;-78
2023/09/11 01:47:33;;;;;;;27.45;24.67;;;23.10;99.90;;;;;;5068038;28;20032;-78
2023/09/11 01:50:01;;;;;;;27.70;25.08;;;23.10;99.90;;;;;;5056949;28;20120;-78
2023/09/11 01:52:27;;;;;;;29.42;24.17;;;23.10;99.90;;;;;;5053993;28;20036;-78
2023/09/11 01:54:56;;;;;;;25.83;23.13;;;23.10;99.90;;;;;;5053402;28;20029;-78
2023/09/11 01:57:25;;;;;;;29.13;26.48;;;23.10;99.90;;;;;;5061642;28;20090;-78
2023/09/11 01:59:50;;;;;;;27.70;25.23;;;23.10;99.90;;;;;;5067206;28;20016;-78
2023/09/11 02:02:16;;;;;;;27.55;24.92;;;23.10;99.90;;;;;;5056160;28;20374;-78
2023/09/11 02:04:41;;;;;;;24.58;22.15;;;23.00;99.90;;;;;;5067404;28;20028;-78
2023/09/11 02:07:07;;;;;;;28.13;24.83;;;23.00;99.90;;;;;;5053861;28;20036;-78
2023/09/11 02:09:32;;;;;;;26.65;24.20;;;23.10;99.90;;;;;;5048831;28;20017;-78
2023/09/11 02:11:58;;;;;;;27.48;24.63;;;23.00;99.90;;;;;;5048573;28;20032;-78
2023/09/11 02:14:24;;;;;;;26.40;23.92;;;23.00;99.90;;;;;;5061992;28;20024;-78
2023/09/11 02:16:49;;;;;;;26.00;23.42;;;23.00;99.90;;;;;;5055924;28;20091;-78
2023/09/11 02:19:15;;;;;;;26.85;24.08;;;23.00;99.90;;;;;;5068294;28;20104;-78
2023/09/11 02:21:40;;;;;;;25.38;23.00;;;22.90;99.90;;;;;;5062952;28;20024;-78
2023/09/11 02:24:06;;;;;;;26.58;24.15;;;23.00;99.90;;;;;;5060424;28;20033;-79
2023/09/11 02:26:32;;;;;;;25.92;22.95;;;22.90;99.90;;;;;;5068569;28;20025;-78
2023/09/11 02:28:59;;;;;;;25.75;23.33;;;22.90;99.90;;;;;;5068628;28;20031;-78
2023/09/11 02:31:25;;;;;;;26.83;23.10;;;22.90;99.90;;;;;;5063963;28;20154;-78
2023/09/11 02:33:51;;;;;;;27.10;24.73;;;22.90;99.90;;;;;;5051337;28;20487;-78
2023/09/11 02:36:17;;;;;;;25.30;20.33;;;22.90;99.90;;;;;;5062708;28;20111;-79
2023/09/11 02:38:42;;;;;;;25.42;22.83;;;22.90;99.90;;;;;;5061659;28;20109;-79
2023/09/11 02:41:08;;;;;;;25.40;23.27;;;22.80;99.90;;;;;;5069075;28;20016;-78
2023/09/11 02:43:33;;;;;;;24.70;22.40;;;22.80;99.90;;;;;;5062270;28;20111;-79
2023/09/11 02:45:59;;;;;;;25.35;23.02;;;22.80;99.90;;;;;;5057594;28;20032;-78
2023/09/11 02:48:24;;;;;;;23.50;21.30;;;22.70;99.90;;;;;;5074367;28;20108;-78
2023/09/11 02:50:50;;;;;;;26.98;24.48;;;22.70;99.90;;;;;;5048584;28;20049;-78
2023/09/11 02:53:16;;;;;;;24.75;22.50;;;22.70;99.90;;;;;;5049700;28;20021;-78
2023/09/11 02:55:42;;;;;;;27.17;24.40;;;22.60;99.90;;;;;;5047488;28;20044;-78
2023/09/11 02:58:08;;;;;;;25.50;23.13;;;22.60;99.90;;;;;;5054014;28;20096;-78
2023/09/11 03:00:35;;;;;;;23.95;22.02;;;22.60;99.90;;;;;;5069071;28;20052;-79
2023/09/11 03:03:03;;;;;;;27.85;25.02;;;22.50;99.90;;;;;;5060003;28;20112;-79
2023/09/11 03:05:31;;;;;;;24.02;21.65;;;22.50;99.90;;;;;;5055307;28;20032;-78
2023/09/11 03:07:57;;;;;;;29.52;26.52;;;22.50;99.90;;;;;;5036188;28;20143;-78
2023/09/11 03:10:23;;;;;;;25.63;23.17;;;22.40;99.90;;;;;;5049557;28;20116;-78
2023/09/11 03:12:48;;;;;;;30.55;27.67;;;22.40;99.90;;;;;;5049344;28;20033;-78
2023/09/11 03:15:14;;;;;;;29.73;26.92;;;22.40;99.90;;;;;;5048427;28;20029;-78
2023/09/11 03:17:40;;;;;;;28.48;25.52;;;22.40;99.90;;;;;;5048409;28;20390;-78
2023/09/11 03:20:07;;;;;;;28.50;25.80;;;22.40;99.90;;;;;;5048054;28;20095;-78
2023/09/11 03:22:32;;;;;;;26.63;24.15;;;22.30;99.90;;;;;;5048843;28;20036;-78
2023/09/11 03:24:58;;;;;;;28.55;25.75;;;22.30;99.90;;;;;;5048366;28;20029;-78
2023/09/11 03:27:23;;;;;;;26.90;24.67;;;22.30;99.90;;;;;;5048781;28;20112;-78
2023/09/11 03:29:54;;;;;;;25.27;22.90;;;22.30;99.90;;;;;;5054777;28;20446;-78
2023/09/11 03:32:19;;;;;;;27.08;24.60;;;22.30;99.90;;;;;;5051969;28;20048;-78
2023/09/11 03:34:45;;;;;;;28.10;25.63;;;22.20;99.90;;;;;;5051087;28;20087;-78
2023/09/11 03:37:10;;;;;;;27.92;25.52;;;22.20;99.90;;;;;;5052731;28;20044;-78
2023/09/11 03:39:36;;;;;;;31.08;28.13;;;22.20;99.90;;;;;;5052855;28;20028;-78
2023/09/11 03:42:02;;;;;;;29.67;26.50;;;22.10;99.90;;;;;;5051575;28;20442;-78
2023/09/11 03:44:28;;;;;;;30.65;27.75;;;22.10;99.90;;;;;;5040247;28;20049;-78
2023/09/11 03:46:53;;;;;;;32.13;29.08;;;22.10;99.90;;;;;;5053118;28;20059;-78
2023/09/11 03:49:19;;;;;;;29.63;26.83;;;22.10;99.90;;;;;;5037979;28;20025;-78
2023/09/11 03:51:44;;;;;;;32.38;29.30;;;22.10;99.90;;;;;;5051688;28;20037;-79
2023/09/11 03:54:10;;;;;;;32.55;29.42;;;22.00;99.90;;;;;;5050631;28;20558;-78
2023/09/11 03:56:36;;;;;;;31.10;28.33;;;22.10;99.90;;;;;;5052291;28;20118;-78
2023/09/11 03:59:02;;;;;;;29.00;26.00;;;22.00;99.90;;;;;;5052349;28;20032;-78
2023/09/11 04:01:27;;;;;;;26.75;24.30;;;22.00;99.90;;;;;;5051053;28;20049;-78
2023/09/11 04:03:53;;;;;;;27.52;24.80;;;22.00;99.90;;;;;;5052776;28;20098;-78
2023/09/11 04:06:19;;;;;;;31.20;28.33;;;22.00;99.90;;;;;;5052529;28;20502;-78
2023/09/11 04:08:45;;;;;;;28.88;25.92;;;22.00;99.90;;;;;;5053114;28;20406;-78
2023/09/11 04:11:10;;;;;;;27.90;25.25;;;22.00;99.90;;;;;;5052274;28;20036;-78
2023/09/11 04:13:36;;;;;;;32.00;28.95;;;21.90;99.90;;;;;;5050606;28;20028;-78
2023/09/11 04:16:01;;;;;;;32.47;29.52;;;21.90;99.90;;;;;;5051456;28;20112;-78
2023/09/11 04:18:27;;;;;;;29.50;26.92;;;21.90;99.90;;;;;;5064974;28;20021;-78
2023/09/11 04:21:03;;;;;;;33.63;30.40;;;21.80;99.90;;;;;;5052128;28;20048;-78
2023/09/11 04:23:29;;;;;;;30.70;27.92;;;21.80;99.90;;;;;;5040022;28;20028;-78
2023/09/11 04:25:55;;;;;;;31.20;28.30;;;21.80;99.90;;;;;;5052489;28;20025;-78
2023/09/11 04:28:21;;;;;;;29.80;27.25;;;21.80;99.90;;;;;;5050818;28;20473;-78
2023/09/11 04:30:47;;;;;;;32.25;29.38;;;21.80;99.90;;;;;;5052176;28;20075;-78
2023/09/11 04:33:12;;;;;;;35.97;32.50;;;21.80;99.90;;;;;;5050953;28;20520;-78
2023/09/11 04:35:38;;;;;;;31.77;29.05;;;21.70;99.90;;;;;;5051930;28;20163;-79
2023/09/11 04:38:04;;;;;;;31.20;28.10;;;21.70;99.90;;;;;;5051539;28;20028;-78
2023/09/11 04:40:29;;;;;;;31.35;28.48;;;21.70;99.90;;;;;;5050163;28;20021;-78
2023/09/11 04:42:55;;;;;;;29.65;26.85;;;21.70;99.90;;;;;;5050443;28;20386;-78
2023/09/11 04:45:21;;;;;;;34.13;31.02;;;21.70;99.90;;;;;;5050612;28;20079;-78
2023/09/11 04:47:47;;;;;;;33.05;30.02;;;21.70;99.90;;;;;;5051213;28;20025;-78
2023/09/11 04:50:12;;;;;;;31.00;27.80;;;21.60;99.90;;;;;;5051289;28;20407;-78
2023/09/11 04:52:38;;;;;;;34.63;31.48;;;21.60;99.90;;;;;;5051291;28;20017;-78
2023/09/11 04:55:04;;;;;;;30.27;27.33;;;21.60;99.90;;;;;;5051782;28;20787;-78
2023/09/11 04:57:30;;;;;;;33.08;29.90;;;21.60;99.90;;;;;;5051473;28;20480;-78
2023/09/11 04:59:55;;;;;;;34.72;31.38;;;21.60;99.90;;;;;;5052106;28;20056;-78
2023/09/11 05:02:21;;;;;;;32.90;29.98;;;21.60;99.90;;;;;;5051299;28;20033;-78
2023/09/11 05:04:47;;;;;;;32.75;29.50;;;21.60;99.90;;;;;;5051496;28;20382;-78
2023/09/11 05:07:12;;;;;;;35.58;32.30;;;21.60;99.90;;;;;;5051150;28;20021;-78
2023/09/11 05:09:39;;;;;;;31.13;28.13;;;21.60;99.90;;;;;;5051368;28;20025;-78
2023/09/11 05:12:05;;;;;;;32.42;29.45;;;21.60;99.90;;;;;;5050373;28;20032;-78
2023/09/11 05:14:30;;;;;;;33.85;30.73;;;21.60;99.90;;;;;;5051644;28;20025;-78
2023/09/11 05:16:56;;;;;;;30.90;28.38;;;21.60;99.90;;;;;;5050584;28;20029;-78
2023/09/11 05:19:21;;;;;;;31.35;28.58;;;21.60;99.90;;;;;;5058722;28;20081;-79
2023/09/11 05:21:47;;;;;;;29.60;26.95;;;21.60;99.90;;;;;;5050333;28;20032;-76
2023/09/11 05:24:13;;;;;;;30.48;27.70;;;21.60;99.90;;;;;;5049981;28;20465;-77
2023/09/11 05:26:38;;;;;;;29.67;26.73;;;21.60;99.90;;;;;;5049980;28;20033;-79
2023/09/11 05:29:04;;;;;;;29.85;26.92;;;21.60;99.90;;;;;;5049524;28;20021;-79
2023/09/11 05:31:30;;;;;;;30.85;27.95;;;21.60;99.90;;;;;;5050402;28;20033;-79
2023/09/11 05:33:55;;;;;;;30.48;27.60;;;21.60;99.90;;;;;;5050337;28;20805;-77
2023/09/11 05:36:21;;;;;;;36.33;32.80;;;21.60;99.90;;;;;;5068675;28;20457;-78
2023/09/11 05:38:49;;;;;;;33.45;30.25;;;21.60;99.90;;;;;;5053251;28;20044;-78
2023/09/11 05:41:16;;;;;;;37.13;33.47;;;21.60;99.90;;;;;;5044640;28;20020;-77
2023/09/11 05:43:41;;;;;;;39.63;36.03;;;21.60;99.90;;;;;;5043845;28;20444;-77
2023/09/11 05:46:07;;;;;;;38.95;35.22;;;21.60;99.90;;;;;;5059552;28;20040;-77
2023/09/11 05:48:33;;;;;;;36.58;33.20;;;21.60;99.90;;;;;;5048062;28;20032;-77
2023/09/11 05:50:59;;;;;;;38.10;34.20;;;21.70;99.90;;;;;;5052170;28;20446;-77
2023/09/11 05:53:24;;;;;;;34.78;31.67;;;21.60;99.90;;;;;;5054540;28;20025;-77
2023/09/11 05:55:50;;;;;;;37.67;33.92;;;21.70;99.90;;;;;;5055559;28;20037;-77
2023/09/11 05:58:15;;;;;;;30.17;27.35;;;21.70;99.90;;;;;;5052141;28;20474;-77
2023/09/11 06:00:42;;;;;;;36.40;33.15;;;21.70;99.90;;;;;;5055578;28;20032;-78
2023/09/11 06:03:07;;;;;;;31.38;28.13;;;21.80;99.90;;;;;;5055902;28;20024;-78
2023/09/11 06:05:35;;;;;;;34.85;31.63;;;21.80;99.90;;;;;;5077631;28;20025;-77
2023/09/11 06:08:01;;;;;;;34.08;30.55;;;21.80;99.90;;;;;;5059295;28;20450;-78
2023/09/11 06:10:27;;;;;;;32.85;29.77;;;21.80;99.90;;;;;;5061799;28;20027;-77
2023/09/11 06:12:52;;;;;;;32.90;30.00;;;21.90;99.90;;;;;;5057724;28;20021;-77
2023/09/11 06:15:18;;;;;;;31.02;28.20;;;21.90;99.90;;;;;;5054935;28;20090;-78
2023/09/11 06:17:43;;;;;;;29.52;26.83;;;21.90;99.90;;;;;;5056933;28;20070;-77
2023/09/11 06:20:10;;;;;;;28.58;25.95;;;22.00;99.90;;;;;;5064564;28;20021;-78
2023/09/11 06:22:37;;;;;;;27.30;24.60;;;22.00;99.90;;;;;;5061812;28;20017;-77
2023/09/11 06:25:04;;;;;;;29.50;26.48;;;22.10;99.90;;;;;;5066989;28;20047;-77
2023/09/11 06:27:30;;;;;;;30.10;27.50;;;22.20;99.90;;;;;;5055146;28;20028;-77
2023/09/11 06:29:56;;;;;;;28.63;26.00;;;22.20;99.90;;;;;;5049327;28;20021;-78
2023/09/11 06:32:21;;;;;;;27.95;25.45;;;22.20;99.90;;;;;;5047757;28;20554;-77
2023/09/11 06:34:47;;;;;;;32.47;29.13;;;22.30;99.90;;;;;;5049254;28;20018;-77
2023/09/11 06:37:12;;;;;;;28.42;25.73;;;22.30;99.90;;;;;;5048822;28;20051;-77
2023/09/11 06:39:38;;;;;;;30.77;27.70;;;22.30;99.90;;;;;;5047627;28;20021;-78
2023/09/11 06:42:04;;;;;;;27.45;24.65;;;22.40;99.90;;;;;;5047827;28;20025;-77
2023/09/11 06:44:30;;;;;;;26.23;23.85;;;22.40;99.90;;;;;;5047880;28;20028;-78
2023/09/11 06:46:56;;;;;;;24.52;22.38;;;22.50;99.90;;;;;;5052675;28;20189;-77
2023/09/11 06:49:22;;;;;;;24.77;21.95;;;22.50;99.90;;;;;;5054830;28;20081;-77
2023/09/11 06:51:47;;;;;;;26.52;23.75;;;22.60;99.90;;;;;;5075517;28;20119;-77
2023/09/11 06:54:13;;;;;;;24.02;21.90;;;22.70;99.90;;;;;;5053594;28;20029;-77
2023/09/11 06:56:42;;;;;;;20.35;18.50;;;22.80;99.90;;;;;;5047331;28;20098;-77
2023/09/11 06:59:07;;;;;;;20.75;18.85;;;22.90;99.90;;;;;;5055430;28;20409;-77
2023/09/11 07:01:38;;;;;;;19.60;17.52;;;22.90;99.90;;;;;;5064684;28;20441;-77
2023/09/11 07:04:11;;;;;;;21.35;19.25;;;23.00;99.90;;;;;;5062809;28;20013;-78
2023/09/11 07:06:39;;;;;;;19.43;17.33;;;23.00;99.90;;;;;;5063041;28;20024;-77
2023/09/11 07:09:06;;;;;;;19.15;17.17;;;23.00;99.90;;;;;;5050285;28;20348;-77
2023/09/11 07:11:32;;;;;;;17.30;15.52;;;23.10;99.90;;;;;;5056273;28;20473;-78
2023/09/11 07:13:58;;;;;;;19.55;16.48;;;23.10;99.90;;;;;;5052295;28;20051;-75
2023/09/11 07:16:24;;;;;;;18.35;16.48;;;23.20;99.90;;;;;;5051362;28;20039;-75
2023/09/11 07:18:50;;;;;;;18.15;16.52;;;23.20;99.90;;;;;;5060598;28;20029;-75
2023/09/11 07:21:16;;;;;;;19.35;15.57;;;23.30;99.90;;;;;;5056852;28;20024;-76
2023/09/11 07:23:41;;;;;;;17.10;15.30;;;23.30;99.90;;;;;;5056773;28;20029;-80
2023/09/11 07:26:07;;;;;;;19.55;16.95;;;23.40;99.90;;;;;;5056797;28;20461;-80
2023/09/11 07:28:34;;;;;;;20.80;16.02;;;23.40;99.90;;;;;;5062290;28;20029;-81
2023/09/11 07:30:59;;;;;;;18.90;16.48;;;23.50;99.90;;;;;;5060980;28;20052;-78
2023/09/11 07:33:25;;;;;;;20.15;18.15;;;23.50;99.90;;;;;;5070277;28;20106;-80
2023/09/11 07:35:50;;;;;;;17.70;16.00;;;23.60;99.90;;;;;;5059732;28;20041;-78
2023/09/11 07:38:16;;;;;;;19.50;17.23;;;23.60;99.90;;;;;;5054976;28;20029;-78
2023/09/11 07:40:42;;;;;;;18.60;16.70;;;23.60;99.90;;;;;;5051322;28;20029;-80
2023/09/11 07:43:08;;;;;;;20.10;17.27;;;23.60;99.90;;;;;;5062617;28;20150;-78
2023/09/11 07:45:34;;;;;;;16.83;15.32;;;23.70;99.90;;;;;;5052904;28;20147;-78
2023/09/11 07:48:00;;;;;;;19.20;17.48;;;23.70;99.90;;;;;;5042027;28;20037;-78
2023/09/11 07:50:25;;;;;;;18.30;16.38;;;23.70;99.90;;;;;;5047637;28;20032;-78
2023/09/11 07:52:51;;;;;;;20.33;18.27;;;23.80;99.90;;;;;;5058849;28;20026;-78
2023/09/11 07:55:17;;;;;;;24.23;18.02;;;23.80;99.90;;;;;;5059533;28;20359;-78
2023/09/11 07:57:43;;;;;;;20.02;18.05;;;23.80;99.90;;;;;;5071652;28;20054;-78
2023/09/11 08:00:09;;;;;;;19.48;17.45;;;23.80;99.90;;;;;;5058874;28;20397;-79
2023/09/11 08:02:36;;;;;;;18.20;16.42;;;23.90;99.90;;;;;;5065701;28;20505;-79
2023/09/11 08:05:02;;;;;;;17.65;15.88;;;23.90;99.90;;;;;;5053340;28;20056;-79
2023/09/11 08:07:28;;;;;;;18.77;16.83;;;23.90;99.90;;;;;;5066057;28;20056;-79
2023/09/11 08:09:54;;;;;;;17.60;15.82;;;24.00;99.90;;;;;;5049937;28;20464;-79
2023/09/11 08:12:20;;;;;;;17.27;14.90;;;24.00;99.90;;;;;;5050229;28;20095;-79
2023/09/11 08:14:45;;;;;;;18.95;16.50;;;24.10;99.90;;;;;;5054829;28;20108;-79
2023/09/11 08:17:12;;;;;;;20.63;17.20;;;24.10;99.70;;;;;;5065170;28;20099;-80
2023/09/11 08:19:38;;;;;;;17.60;15.80;;;24.20;99.60;;;;;;5055637;28;20024;-79
2023/09/11 08:22:03;;;;;;;17.13;15.65;;;24.20;99.50;;;;;;5057048;28;20021;-80
2023/09/11 08:24:29;;;;;;;17.00;15.32;;;24.20;99.50;;;;;;5057657;28;20029;-80
2023/09/11 08:26:55;;;;;;;18.63;15.70;;;24.30;99.40;;;;;;5066601;28;20021;-79
2023/09/11 08:29:21;;;;;;;19.77;16.20;;;24.30;99.30;;;;;;5063431;28;20024;-79
2023/09/11 08:31:47;;;;;;;17.20;15.07;;;24.30;99.20;;;;;;5063896;28;20490;-80
2023/09/11 08:34:13;;;;;;;15.70;14.15;;;24.40;99.20;;;;;;5060093;28;21489;-80
2023/09/11 08:36:38;;;;;;;19.15;15.82;;;24.40;99.10;;;;;;5064380;28;20032;-79
2023/09/11 08:39:04;;;;;;;15.93;14.32;;;24.50;99.10;;;;;;5062105;28;20021;-79
2023/09/11 08:41:30;;;;;;;16.70;15.00;;;24.50;99.00;;;;;;5056911;28;20033;-80
2023/09/11 08:43:56;;;;;;;17.15;15.35;;;24.60;98.80;;;;;;5053338;28;20025;-80
2023/09/11 08:46:23;;;;;;;16.45;14.75;;;24.60;98.70;;;;;;5061723;28;20043;-80
2023/09/11 08:48:53;;;;;;;17.50;15.18;;;24.70;98.70;;;;;;5068237;28;20036;-79
2023/09/11 08:51:29;;;;;;;17.05;14.00;;;24.70;98.50;;;;;;5070064;28;20032;-80
2023/09/11 08:53:56;;;;;;;16.02;14.45;;;24.70;98.50;;;;;;5069851;28;20073;-79
2023/09/11 08:56:22;;;;;;;16.08;14.38;;;24.80;98.50;;;;;;5069831;28;20280;-77
2023/09/11 08:58:51;;;;;;;16.83;14.00;;;24.80;98.50;;;;;;5069820;28;20092;-77
2023/09/11 09:01:19;;;;;;;18.58;16.63;;;24.90;98.40;;;;;;5064904;28;20025;-77
2023/09/11 09:03:45;;;;;;;17.85;15.38;;;25.00;98.10;;;;;;5053880;28;20103;-77
2023/09/11 09:06:12;;;;;;;16.90;15.25;;;24.90;98.00;;;;;;5067589;28;20469;-77
2023/09/11 09:08:38;;;;;;;17.83;16.02;;;25.00;97.90;;;;;;5063431;28;20024;-78
2023/09/11 09:11:04;;;;;;;19.13;17.23;;;25.00;97.80;;;;;;5062154;28;20107;-77
2023/09/11 09:13:35;;;;;;;15.90;14.45;;;25.10;97.80;;;;;;5069122;28;20031;-77
2023/09/11 09:16:00;;;;;;;18.98;16.08;;;25.10;97.80;;;;;;5052460;28;20037;-78
2023/09/11 09:18:26;;;;;;;17.80;16.30;;;25.20;97.70;;;;;;5052349;28;20074;-78
2023/09/11 09:20:52;;;;;;;18.33;16.63;;;25.20;97.70;;;;;;5057889;28;20032;-77
2023/09/11 09:23:17;;;;;;;18.15;16.45;;;25.30;97.70;;;;;;5059647;28;20013;-76
2023/09/11 09:25:43;;;;;;;18.35;16.67;;;25.40;97.70;;;;;;5056488;28;20024;-78
2023/09/11 09:28:08;;;;;;;18.80;16.88;;;25.40;97.60;;;;;;5057475;28;20021;-78
2023/09/11 09:30:36;;;;;;;16.70;14.95;;;25.50;97.50;;;;;;5051992;28;20044;-78
2023/09/11 09:33:02;;;;;;;21.55;17.13;;;25.60;97.60;;;;;;5053520;28;20017;-78
2023/09/11 09:35:33;;;;;;;20.02;15.65;;;25.60;97.40;;;;;;5057006;28;20041;-77
2023/09/11 09:38:00;;;;;;;16.27;14.40;;;25.70;97.30;;;;;;5065187;28;20028;-78
2023/09/11 09:40:39;;;;;;;15.75;13.82;;;25.70;97.40;;;;;;5066610;28;20035;-78
2023/09/11 09:43:08;;;;;;;17.98;14.45;;;25.80;97.20;;;;;;5064322;28;20048;-78
2023/09/11 09:45:37;;;;;;;15.95;13.60;;;25.90;97.10;;;;;;5056195;28;20052;-78
2023/09/11 09:48:17;;;;;;;15.43;12.82;;;26.00;97.10;;;;;;5061113;28;20025;-78
2023/09/11 09:51:00;;;;;;;14.43;12.90;;;26.10;96.80;;;;;;5060553;28;20061;-78
2023/09/11 09:53:42;;;;;;;14.68;12.15;;;26.20;96.60;;;;;;5063806;28;20025;-79
2023/09/11 09:56:10;;;;;;;14.52;13.07;;;26.30;96.40;;;;;;5062340;28;20454;-79
2023/09/11 09:58:38;;;;;;;15.60;12.38;;;26.30;96.00;;;;;;5061089;28;20029;-78
2023/09/11 10:01:08;;;;;;;13.23;11.30;;;26.30;95.80;;;;;;5064875;28;20021;-79
2023/09/11 10:03:52;;;;;;;14.73;12.77;;;26.40;95.80;;;;;;5061438;28;20020;-79
2023/09/11 10:06:18;;;;;;;13.77;12.52;;;26.50;95.50;;;;;;5064226;28;20025;-78
2023/09/11 10:08:45;;;;;;;16.67;13.82;;;26.50;95.60;;;;;;5055873;28;20032;-77
2023/09/11 10:11:27;;;;;;;13.40;10.95;;;26.60;95.50;;;;;;5061779;28;20025;-78
2023/09/11 10:13:56;;;;;;;13.77;11.25;;;26.60;95.40;;;;;;5057587;28;20108;-78
2023/09/11 10:16:23;;;;;;;14.80;11.38;;;26.60;95.40;;;;;;5049780;28;20087;-78
2023/09/11 10:18:49;;;;;;;15.40;11.38;;;26.70;95.30;;;;;;5049063;28;20109;-79
2023/09/11 10:21:18;;;;;;;12.50;11.13;;;26.70;95.20;;;;;;5048161;28;20024;-79
2023/09/11 10:23:44;;;;;;;11.13;9.68;;;26.80;95.00;;;;;;5064894;28;20390;-78
2023/09/11 10:26:16;;;;;;;10.27;9.27;;;26.80;94.80;;;;;;5049471;28;20033;-80
2023/09/11 10:28:44;;;;;;;14.50;9.60;;;26.90;94.70;;;;;;5057042;28;20056;-79
2023/09/11 10:31:51;;;;;;;10.52;9.02;;;26.90;94.50;;;;;;5059057;28;20112;-79
2023/09/11 10:34:17;;;;;;;12.00;9.18;;;27.00;94.50;;;;;;5067974;28;20116;-79
2023/09/11 10:36:48;;;;;;;10.52;9.27;;;27.00;94.50;;;;;;5061745;28;20040;-80
2023/09/11 10:39:16;;;;;;;13.00;9.52;;;27.00;94.40;;;;;;5058895;28;20056;-79
2023/09/11 10:41:42;;;;;;;10.30;9.40;;;27.10;94.10;;;;;;5058302;28;20872;-79
2023/09/11 10:44:08;;;;;;;10.80;8.25;;;27.00;94.10;;;;;;5055968;28;20040;-79
2023/09/11 10:46:39;;;;;;;9.30;7.50;;;27.10;94.00;;;;;;5059699;28;20477;-79
2023/09/11 10:49:16;;;;;;;12.30;9.15;;;27.10;93.70;;;;;;5056180;28;20473;-79
2023/09/11 10:51:42;;;;;;;8.98;8.07;;;27.10;93.40;;;;;;5057449;28;20029;-79
2023/09/11 10:54:11;;;;;;;13.20;8.38;;;27.10;93.50;;;;;;5046057;28;20037;-79
2023/09/11 10:56:37;;;;;;;8.00;7.28;;;27.10;93.50;;;;;;5062147;28;20087;-79
2023/09/11 10:59:04;;;;;;;10.95;7.70;;;27.10;93.30;;;;;;5055480;28;20392;-80
2023/09/11 11:01:32;;;;;;;10.93;8.93;;;27.20;93.30;;;;;;5061636;28;20028;-79
2023/09/11 11:04:02;;;;;;;13.25;8.90;;;27.20;93.10;;;;;;5059246;28;20032;-78
2023/09/11 11:06:29;;;;;;;8.95;8.05;;;27.20;93.10;;;;;;5066764;28;20114;-79
2023/09/11 11:08:54;;;;;;;9.70;7.68;;;27.20;92.90;;;;;;5066346;28;20533;-77
2023/09/11 11:11:27;;;;;;;9.32;7.85;;;27.20;92.90;;;;;;5067455;28;20097;-79
2023/09/11 11:14:13;;;;;;;8.35;6.88;;;27.20;92.80;;;;;;5071804;28;20037;-80
2023/09/11 11:16:39;;;;;;;8.32;7.32;;;27.20;92.70;;;;;;5054894;28;20039;-81
2023/09/11 11:19:05;;;;;;;9.27;8.05;;;27.20;92.60;;;;;;5057987;28;20478;-81
2023/09/11 11:21:41;;;;;;;9.00;7.47;;;27.20;92.60;;;;;;5051093;28;20159;-81
2023/09/11 11:24:09;;;;;;;10.45;6.70;;;27.20;92.50;;;;;;5065278;28;20024;-81
2023/09/11 11:26:40;;;;;;;8.65;6.72;;;27.20;92.80;;;;;;5056747;28;20115;-81
2023/09/11 11:29:06;;;;;;;14.45;9.75;;;27.30;92.70;;;;;;5063435;28;20024;-81
2023/09/11 11:31:32;;;;;;;10.45;8.15;;;27.30;92.70;;;;;;5065071;28;20028;-81
2023/09/11 11:33:59;;;;;;;10.18;8.98;;;27.30;92.80;;;;;;5060019;28;20130;-81
2023/09/11 11:36:26;;;;;;;9.77;8.20;;;27.30;92.70;;;;;;5066499;28;20028;-80
2023/09/11 11:38:56;;;;;;;9.77;8.00;;;27.30;92.80;;;;;;5061044;28;20017;-80
2023/09/11 11:41:22;;;;;;;10.15;7.18;;;27.30;92.80;;;;;;5049707;28;20043;-80
2023/09/11 11:43:49;;;;;;;7.25;6.55;;;27.40;92.60;;;;;;5059461;28;20024;-80
2023/09/11 11:46:18;;;;;;;13.50;7.55;;;27.40;92.50;;;;;;5056466;28;20025;-81
2023/09/11 11:48:43;;;;;;;7.75;6.32;;;27.40;92.40;;;;;;5053767;28;20387;-80
2023/09/11 11:51:09;;;;;;;10.75;7.10;;;27.50;92.20;;;;;;5064888;28;20078;-80
2023/09/11 11:53:35;;;;;;;9.07;7.68;;;27.50;92.20;;;;;;5064540;28;20107;-80
2023/09/11 11:56:05;;;;;;;7.68;6.88;;;27.50;92.00;;;;;;5081984;28;20044;-81
2023/09/11 11:58:31;;;;;;;10.13;7.18;;;27.50;91.80;;;;;;5062569;28;20021;-80
2023/09/11 12:01:05;;;;;;;8.77;7.30;;;27.50;91.80;;;;;;5062643;28;20081;-78
2023/09/11 12:03:33;;;;;;;8.82;7.85;;;27.50;91.60;;;;;;5056290;28;20021;-77
2023/09/11 12:06:01;;;;;;;9.88;6.38;;;27.60;91.70;;;;;;5063469;28;20025;-81
2023/09/11 12:08:27;;;;;;;10.18;7.10;;;27.60;91.80;;;;;;5054857;28;20029;-77
2023/09/11 12:10:54;;;;;;;10.07;7.57;;;27.60;91.90;;;;;;5050636;28;20025;-78
2023/09/11 12:13:23;;;;;;;8.40;7.53;;;27.70;92.00;;;;;;5053508;28;20037;-80
2023/09/11 12:15:57;;;;;;;8.32;7.38;;;27.70;92.10;;;;;;5051589;28;20036;-81
2023/09/11 12:18:24;;;;;;;11.48;8.90;;;27.80;92.10;;;;;;5049968;28;20104;-78
2023/09/11 12:20:56;;;;;;;9.13;7.93;;;27.70;92.10;;;;;;5049889;28;20021;-73
2023/09/11 12:23:22;;;;;;;8.70;7.82;;;27.80;92.00;;;;;;5037876;28;20496;-77
2023/09/11 12:25:48;;;;;;;10.20;7.75;;;27.80;91.90;;;;;;5051227;28;20029;-78
2023/09/11 12:28:14;;;;;;;8.20;7.45;;;27.90;92.10;;;;;;5050606;28;20506;-76